Orbital elements of COSMOS 1275 DEB
| Launched | 3 June 1981 |
| Flight ended | – |
| Launch site | Plesetsk Missile and Space Complex, Russia |
| Owner | Commonwealth of Independent States (former USSR) |
| NORAD ID | 13024 |
| Date fetched |
Epoch osculation |
Inc. [°] |
Ecc. | RA asc node [hr] |
Arg Peri. [°] |
Mean anom [°] |
Mean motion [rev/day] |
Abs. mag |
| Date fetched |
Epoch osculation |
Inc. [°] |
Ecc. | RA asc node [hr] |
Arg Peri. [°] |
Mean anom [°] |
Mean motion [rev/day] |
Abs. mag |
| 2026 May 08 17:57 | 2026 May 05 10:37:26 | 82.9202 | 0.00405 | 19.4204 | 197.1875 | 192.2934 | 14.07231 | – |
| 2026 May 07 17:58 | 2026 May 05 10:37:26 | 82.9202 | 0.00405 | 19.4204 | 197.1875 | 192.2934 | 14.07231 | – |
| 2026 May 06 17:57 | 2026 May 05 10:37:26 | 82.9202 | 0.00405 | 19.4204 | 197.1875 | 192.2934 | 14.07231 | – |
| 2026 May 05 17:57 | 2026 May 05 10:37:26 | 82.9202 | 0.00405 | 19.4204 | 197.1875 | 192.2934 | 14.07231 | – |
| 2026 May 04 17:57 | 2026 Apr 30 11:10:11 | 82.9196 | 0.00402 | 19.6807 | 212.5354 | 192.2934 | 14.07231 | – |
| 2026 May 03 17:57 | 2026 Apr 30 11:10:11 | 82.9196 | 0.00402 | 19.6807 | 212.5354 | 192.2934 | 14.07231 | – |
| 2026 May 02 17:57 | 2026 Apr 30 11:10:11 | 82.9196 | 0.00402 | 19.6807 | 212.5354 | 192.2934 | 14.07231 | – |
| 2026 May 01 17:56 | 2026 Apr 30 11:10:11 | 82.9196 | 0.00402 | 19.6807 | 212.5354 | 192.2934 | 14.07231 | – |
| 2026 Apr 30 17:56 | 2026 Apr 30 11:10:11 | 82.9196 | 0.00402 | 19.6807 | 212.5354 | 192.2934 | 14.07231 | – |
| 2026 Apr 29 17:57 | 2026 Apr 24 11:57:54 | 82.9196 | 0.00401 | 19.9928 | 231.0992 | 192.2934 | 14.07231 | – |
| 2026 Apr 28 17:56 | 2026 Apr 24 11:57:54 | 82.9196 | 0.00401 | 19.9928 | 231.0992 | 192.2934 | 14.07231 | – |
| 2026 Apr 27 17:58 | 2026 Apr 24 11:57:54 | 82.9196 | 0.00401 | 19.9928 | 231.0992 | 192.2934 | 14.07231 | – |
| 2026 Apr 26 17:58 | 2026 Apr 24 11:57:54 | 82.9196 | 0.00401 | 19.9928 | 231.0992 | 192.2934 | 14.07231 | – |
| 2026 Apr 25 17:58 | 2026 Apr 24 11:57:54 | 82.9196 | 0.00401 | 19.9928 | 231.0992 | 192.2934 | 14.07231 | – |
| 2026 Apr 24 17:59 | 2026 Apr 24 11:57:54 | 82.9196 | 0.00401 | 19.9928 | 231.0992 | 192.2934 | 14.07231 | – |
| 2026 Apr 23 17:57 | 2026 Apr 19 00:49:52 | 82.9199 | 0.00402 | 20.2786 | 248.0821 | 192.2934 | 14.07231 | – |
| 2026 Apr 22 17:57 | 2026 Apr 19 00:49:52 | 82.9199 | 0.00402 | 20.2786 | 248.0821 | 192.2934 | 14.07231 | – |
| 2026 Apr 21 17:57 | 2026 Apr 19 00:49:52 | 82.9199 | 0.00402 | 20.2786 | 248.0821 | 192.2934 | 14.07231 | – |
| 2026 Apr 20 17:57 | 2026 Apr 19 00:49:52 | 82.9199 | 0.00402 | 20.2786 | 248.0821 | 192.2934 | 14.07231 | – |
| 2026 Apr 19 17:58 | 2026 Apr 19 00:49:52 | 82.9199 | 0.00402 | 20.2786 | 248.0821 | 192.2934 | 14.07231 | – |
| 2026 Apr 18 17:56 | 2026 Apr 13 01:42:13 | 82.9206 | 0.00405 | 20.5905 | 266.6439 | 192.2934 | 14.07231 | – |
| 2026 Apr 16 17:57 | 2026 Apr 13 01:42:13 | 82.9206 | 0.00405 | 20.5905 | 266.6439 | 192.2934 | 14.07231 | – |
| 2026 Apr 14 17:57 | 2026 Apr 13 01:42:13 | 82.9206 | 0.00405 | 20.5905 | 266.6439 | 192.2934 | 14.07231 | – |
| 2026 Apr 13 17:57 | 2026 Apr 13 01:42:13 | 82.9206 | 0.00405 | 20.5905 | 266.6439 | 192.2934 | 14.07231 | – |
| 2026 Apr 12 17:57 | 2026 Apr 08 13:42:56 | 82.9214 | 0.00408 | 20.8258 | 280.4512 | 192.2934 | 14.07231 | – |
| 2026 Apr 11 17:57 | 2026 Apr 08 13:42:56 | 82.9214 | 0.00408 | 20.8258 | 280.4512 | 192.2934 | 14.07231 | – |